Time;durP1;ratioP1;P1;durP2;ratioP2;P2;SDS_P1;SDS_P2;PMS_P1;PMS_P2;Temp;Humidity;BMP_temperature;BMP_pressure;BME280_temperature;BME280_humidity;BME280_pressure;Samples;Min_cycle;Max_cycle;Signal;HPM_P1;HPM_P2
2024/01/21 00:00:28;;;;;;;9.67;4.77;;;-0.30;99.90;;;;;;6308012;22;20015;-42
2024/01/21 00:02:54;;;;;;;9.03;5.47;;;-0.20;99.90;;;;;;6307965;22;20023;-42
2024/01/21 00:05:19;;;;;;;9.20;5.23;;;0.10;99.90;;;;;;6254836;22;20446;-43
2024/01/21 00:07:45;;;;;;;9.57;4.73;;;-0.20;99.90;;;;;;6308009;22;20046;-43
2024/01/21 00:10:11;;;;;;;9.37;5.10;;;-0.20;99.90;;;;;;6308341;22;20094;-43
2024/01/21 00:12:37;;;;;;;11.70;5.40;;;-0.20;99.90;;;;;;6308238;22;20442;-43
2024/01/21 00:15:04;;;;;;;10.03;5.27;;;-0.30;99.90;;;;;;6307903;22;20026;-42
2024/01/21 00:17:30;;;;;;;11.47;5.77;;;-0.30;99.90;;;;;;6280864;22;20093;-43
2024/01/21 00:19:56;;;;;;;9.57;5.10;;;-0.30;99.90;;;;;;6307895;22;20100;-42
2024/01/21 00:22:22;;;;;;;8.60;5.00;;;-0.30;99.90;;;;;;6280573;22;20461;-43
2024/01/21 00:24:49;;;;;;;11.17;5.83;;;-0.30;99.90;;;;;;6281376;22;20377;-43
2024/01/21 00:27:14;;;;;;;8.67;4.80;;;-0.30;99.90;;;;;;6307805;22;20023;-43
2024/01/21 00:29:40;;;;;;;9.83;5.90;;;-0.10;99.90;;;;;;6307817;22;20015;-43
2024/01/21 00:32:06;;;;;;;9.27;5.30;;;-0.40;99.90;;;;;;6280620;22;20094;-43
2024/01/21 00:34:31;;;;;;;11.10;5.90;;;-0.40;99.90;;;;;;6280488;22;20019;-43
2024/01/21 00:36:57;;;;;;;10.80;6.00;;;-0.40;99.90;;;;;;6254959;22;20026;-42
2024/01/21 00:39:23;;;;;;;8.87;5.97;;;-0.50;99.90;;;;;;6255577;22;20037;-43
2024/01/21 00:41:49;;;;;;;9.67;5.57;;;-0.40;99.90;;;;;;6256599;22;20050;-42
2024/01/21 00:44:14;;;;;;;8.97;4.73;;;-0.50;99.90;;;;;;6309995;22;20117;-43
2024/01/21 00:46:40;;;;;;;8.97;4.80;;;-0.40;99.90;;;;;;6282306;22;20531;-43
2024/01/21 00:49:06;;;;;;;8.07;5.27;;;-0.40;99.90;;;;;;6309515;22;20099;-42
2024/01/21 00:51:31;;;;;;;9.13;4.57;;;-0.10;99.90;;;;;;6282304;22;20019;-43
2024/01/21 00:54:00;;;;;;;7.57;4.60;;;-0.30;99.90;;;;;;6252914;22;20020;-43
2024/01/21 00:56:26;;;;;;;7.50;4.10;;;-0.30;99.90;;;;;;6248069;22;20028;-41
2024/01/21 00:58:51;;;;;;;10.05;4.50;;;-0.20;99.90;;;;;;6247848;23;20016;-43
2024/01/21 01:01:17;;;;;;;13.50;5.63;;;-0.30;99.90;;;;;;6247907;23;20017;-43
2024/01/21 01:03:44;;;;;;;8.70;4.87;;;-0.30;99.90;;;;;;6246064;23;20016;-43
2024/01/21 01:06:10;;;;;;;10.87;5.27;;;-0.30;99.90;;;;;;6247076;23;20416;-43
2024/01/21 01:08:35;;;;;;;9.95;5.30;;;-0.30;99.90;;;;;;6247853;23;20023;-42
2024/01/21 01:11:01;;;;;;;7.97;4.77;;;-0.10;99.90;;;;;;6221522;23;20016;-42
2024/01/21 01:13:27;;;;;;;9.17;5.23;;;-0.40;99.90;;;;;;6246317;23;20447;-42
2024/01/21 01:15:52;;;;;;;8.23;4.97;;;-0.40;99.90;;;;;;6246299;23;20099;-43
2024/01/21 01:18:18;;;;;;;8.20;4.83;;;-0.30;99.90;;;;;;6246533;23;20019;-43
2024/01/21 01:20:44;;;;;;;10.60;5.60;;;-0.30;99.90;;;;;;6248457;23;20305;-43
2024/01/21 01:23:09;;;;;;;9.33;5.00;;;-0.30;99.90;;;;;;6247752;23;20086;-43
2024/01/21 01:25:35;;;;;;;10.27;5.27;;;-0.30;99.90;;;;;;6246618;23;20027;-43
2024/01/21 01:28:02;;;;;;;9.43;5.63;;;0.00;99.90;;;;;;6247373;23;20016;-42
2024/01/21 01:30:28;;;;;;;8.07;4.20;;;-0.20;99.90;;;;;;6247630;23;20027;-43
2024/01/21 01:32:54;;;;;;;8.20;5.17;;;-0.10;99.90;;;;;;6246138;23;20020;-43
2024/01/21 01:35:19;;;;;;;11.97;6.10;;;-0.10;99.90;;;;;;6248254;23;20104;-42
2024/01/21 01:37:45;;;;;;;9.27;5.43;;;0.00;99.90;;;;;;6247587;23;20099;-42
2024/01/21 01:40:11;;;;;;;9.43;5.37;;;0.00;99.90;;;;;;6220715;23;20020;-43
2024/01/21 01:42:36;;;;;;;8.87;5.17;;;0.00;99.90;;;;;;6247469;23;20059;-42
2024/01/21 01:45:02;;;;;;;10.67;5.37;;;0.00;99.90;;;;;;6246459;23;20433;-42
2024/01/21 01:47:28;;;;;;;10.27;5.47;;;0.10;99.90;;;;;;6246005;23;20435;-42
2024/01/21 01:49:54;;;;;;;10.23;5.20;;;0.10;99.90;;;;;;6247439;22;20027;-43
2024/01/21 01:52:21;;;;;;;8.37;4.43;;;0.20;99.90;;;;;;6227211;22;20020;-42
2024/01/21 01:54:48;;;;;;;10.70;5.03;;;0.10;99.90;;;;;;6309068;22;20458;-43
2024/01/21 01:57:15;;;;;;;9.27;4.97;;;0.10;99.90;;;;;;6308905;22;20058;-42
2024/01/21 01:59:41;;;;;;;8.50;4.37;;;0.20;99.90;;;;;;6256886;22;20022;-42
2024/01/21 02:02:07;;;;;;;9.07;3.43;;;0.10;99.90;;;;;;6308960;22;20019;-43
2024/01/21 02:04:34;;;;;;;8.27;5.10;;;0.20;99.90;;;;;;6308935;22;20099;-42
2024/01/21 02:07:00;;;;;;;7.97;4.77;;;0.20;99.90;;;;;;6309592;22;20015;-43
2024/01/21 02:09:25;;;;;;;7.50;3.83;;;0.30;99.90;;;;;;6309550;22;20023;-42
2024/01/21 02:11:52;;;;;;;6.43;4.17;;;0.30;99.90;;;;;;6308813;22;20023;-43
2024/01/21 02:14:17;;;;;;;6.50;4.00;;;0.40;99.90;;;;;;6281744;22;20015;-43
2024/01/21 02:16:43;;;;;;;5.77;3.20;;;0.40;99.90;;;;;;6255982;22;20316;-42
2024/01/21 02:19:26;;;;;;;5.23;3.10;;;0.70;99.90;;;;;;6308983;22;20008;-42
2024/01/21 02:21:52;;;;;;;5.47;3.03;;;0.60;99.90;;;;;;6281930;22;20492;-42
2024/01/21 02:24:17;;;;;;;3.60;2.70;;;0.60;99.90;;;;;;6308638;22;20241;-42
2024/01/21 02:26:43;;;;;;;6.57;3.80;;;0.70;99.90;;;;;;6282430;22;20051;-42
2024/01/21 02:29:09;;;;;;;6.75;3.50;;;0.60;99.90;;;;;;6281163;22;20446;-43
2024/01/21 02:31:35;;;;;;;7.28;3.38;;;0.60;99.90;;;;;;6256740;22;20022;-44
2024/01/21 02:34:00;;;;;;;4.40;2.60;;;0.50;99.90;;;;;;6309700;22;20018;-42
2024/01/21 02:36:26;;;;;;;6.67;3.50;;;0.40;99.90;;;;;;6308596;22;20019;-43
2024/01/21 02:38:52;;;;;;;5.30;3.23;;;0.40;99.90;;;;;;6309126;22;20021;-42
2024/01/21 02:41:17;;;;;;;6.63;3.53;;;0.40;99.90;;;;;;6281339;22;20094;-42
2024/01/21 02:43:43;;;;;;;7.50;3.37;;;0.40;99.90;;;;;;6281165;22;20023;-42
2024/01/21 02:46:09;;;;;;;6.47;3.93;;;0.40;99.90;;;;;;6308560;22;20019;-43
2024/01/21 02:48:35;;;;;;;6.20;3.47;;;0.50;99.90;;;;;;6308481;22;20015;-43
2024/01/21 02:51:00;;;;;;;5.43;3.33;;;0.50;99.90;;;;;;6281088;22;20015;-40
2024/01/21 02:53:26;;;;;;;6.87;2.93;;;0.50;99.90;;;;;;6308169;22;20026;-43
2024/01/21 02:55:51;;;;;;;6.28;3.40;;;0.50;99.90;;;;;;6282132;22;20027;-43
2024/01/21 02:58:17;;;;;;;6.47;3.22;;;0.50;99.90;;;;;;6309342;22;20021;-43
2024/01/21 03:00:43;;;;;;;6.97;3.13;;;0.80;99.90;;;;;;6309172;22;20015;-43
2024/01/21 03:03:10;;;;;;;5.20;2.85;;;0.80;99.90;;;;;;6308900;22;20462;-43
2024/01/21 03:05:36;;;;;;;5.20;3.00;;;0.60;99.90;;;;;;6280977;22;20521;-42
2024/01/21 03:08:02;;;;;;;5.65;3.53;;;0.60;99.90;;;;;;6308353;22;20011;-43
2024/01/21 03:10:28;;;;;;;6.63;2.73;;;0.60;99.90;;;;;;6281200;22;20438;-43
2024/01/21 03:12:53;;;;;;;5.47;2.70;;;0.60;99.90;;;;;;6308881;22;20068;-42
2024/01/21 03:15:19;;;;;;;4.47;2.63;;;0.70;99.90;;;;;;6255351;22;20016;-42
2024/01/21 03:17:45;;;;;;;6.27;3.57;;;0.70;99.90;;;;;;6280808;22;20022;-42
2024/01/21 03:20:11;;;;;;;8.50;3.70;;;0.60;99.90;;;;;;6308228;22;20334;-43
2024/01/21 03:22:36;;;;;;;5.77;2.97;;;0.60;99.90;;;;;;6308236;22;20026;-43
2024/01/21 03:25:02;;;;;;;6.78;3.55;;;0.50;99.90;;;;;;6280999;22;20468;-43
2024/01/21 03:27:28;;;;;;;5.10;3.10;;;0.50;99.90;;;;;;6255414;22;20015;-42
2024/01/21 03:29:55;;;;;;;7.82;3.42;;;0.50;99.90;;;;;;6280976;22;20308;-43
2024/01/21 03:32:21;;;;;;;6.67;3.07;;;0.40;99.90;;;;;;6280859;22;20015;-42
2024/01/21 03:34:46;;;;;;;5.22;3.17;;;0.40;99.90;;;;;;6231075;22;20087;-43
2024/01/21 03:37:12;;;;;;;6.50;3.17;;;0.40;99.90;;;;;;6280380;22;20040;-43
2024/01/21 03:39:38;;;;;;;5.03;2.95;;;0.40;99.90;;;;;;6308097;22;20023;-43
2024/01/21 03:42:03;;;;;;;4.93;2.63;;;0.30;99.90;;;;;;6308108;22;20053;-43
2024/01/21 03:44:29;;;;;;;5.47;2.47;;;0.20;99.90;;;;;;6308799;22;20015;-42
2024/01/21 03:46:55;;;;;;;6.13;3.05;;;0.10;99.90;;;;;;6308076;22;20019;-42
2024/01/21 03:49:20;;;;;;;5.65;2.50;;;0.10;99.90;;;;;;6280774;22;20015;-42
2024/01/21 03:51:46;;;;;;;6.30;2.80;;;0.10;99.90;;;;;;6255333;22;20457;-43
2024/01/21 03:54:12;;;;;;;4.93;2.60;;;0.20;99.90;;;;;;6308363;22;20060;-42
2024/01/21 03:56:37;;;;;;;5.97;2.53;;;0.50;99.90;;;;;;6308023;22;20015;-43
2024/01/21 03:59:03;;;;;;;4.32;2.20;;;0.20;99.90;;;;;;6308048;22;20015;-42
2024/01/21 04:01:29;;;;;;;3.97;2.30;;;0.20;99.90;;;;;;6256232;22;20015;-43
2024/01/21 04:03:54;;;;;;;7.13;3.27;;;0.30;99.90;;;;;;6281408;22;20442;-42
2024/01/21 04:06:20;;;;;;;5.70;3.05;;;0.30;99.90;;;;;;6308352;22;20435;-43
2024/01/21 04:08:46;;;;;;;4.88;2.40;;;0.20;99.90;;;;;;6281454;22;20438;-43
2024/01/21 04:11:11;;;;;;;5.40;2.13;;;0.10;99.90;;;;;;6308987;22;20019;-43
2024/01/21 04:13:37;;;;;;;5.20;2.47;;;0.10;99.90;;;;;;6307987;22;20026;-43
2024/01/21 04:16:03;;;;;;;4.50;1.90;;;0.10;99.90;;;;;;6257925;22;20015;-43
2024/01/21 04:18:29;;;;;;;5.73;2.40;;;0.00;99.90;;;;;;6282817;22;20011;-42
2024/01/21 04:20:54;;;;;;;4.73;2.17;;;0.00;99.90;;;;;;6309910;22;20016;-41
2024/01/21 04:23:20;;;;;;;4.60;2.40;;;0.00;99.90;;;;;;6282576;22;20316;-42
2024/01/21 04:25:46;;;;;;;5.97;2.17;;;0.00;99.90;;;;;;6309853;22;20022;-42
2024/01/21 04:28:12;;;;;;;3.90;1.83;;;0.20;99.90;;;;;;6282656;22;20018;-42
2024/01/21 04:30:39;;;;;;;3.00;1.73;;;0.50;99.90;;;;;;6283394;22;20373;-42
2024/01/21 04:33:05;;;;;;;7.00;2.42;;;0.30;99.90;;;;;;6309800;22;20015;-43
2024/01/21 04:35:30;;;;;;;4.03;1.60;;;0.30;99.90;;;;;;6309782;22;20076;-43
2024/01/21 04:37:56;;;;;;;6.17;2.30;;;0.40;99.90;;;;;;6309673;22;20466;-43
2024/01/21 04:40:22;;;;;;;3.70;2.33;;;0.40;99.90;;;;;;6257002;22;20015;-42
2024/01/21 04:42:47;;;;;;;3.40;1.50;;;0.50;99.90;;;;;;6257238;22;20042;-42
2024/01/21 04:45:16;;;;;;;3.53;1.27;;;0.60;99.90;;;;;;6283454;22;20403;-42
2024/01/21 04:47:42;;;;;;;2.07;1.33;;;0.80;99.90;;;;;;6282401;22;20022;-43
2024/01/21 04:50:08;;;;;;;4.80;1.93;;;0.90;99.90;;;;;;6282292;22;20019;-43
2024/01/21 04:52:33;;;;;;;1.77;1.07;;;1.10;99.90;;;;;;6309749;22;20015;-43
2024/01/21 04:54:59;;;;;;;3.83;1.83;;;1.10;99.90;;;;;;6283342;22;20314;-42
2024/01/21 04:57:25;;;;;;;2.83;1.65;;;1.00;99.90;;;;;;6309467;22;20061;-43
2024/01/21 04:59:50;;;;;;;3.87;1.67;;;1.00;99.90;;;;;;6309899;22;20358;-42
2024/01/21 05:02:16;;;;;;;5.30;1.20;;;1.10;99.90;;;;;;6309165;22;20080;-42
2024/01/21 05:04:42;;;;;;;2.03;1.23;;;1.10;99.90;;;;;;6309884;22;20019;-42
2024/01/21 05:07:07;;;;;;;2.83;1.40;;;1.50;99.90;;;;;;6282222;22;20466;-43
2024/01/21 05:09:33;;;;;;;3.10;1.30;;;1.20;99.90;;;;;;6309472;22;20038;-43
2024/01/21 05:11:59;;;;;;;2.28;1.17;;;1.20;99.90;;;;;;6309438;22;20015;-41
2024/01/21 05:14:24;;;;;;;3.17;1.20;;;1.10;99.90;;;;;;6309403;22;20026;-43
2024/01/21 05:16:50;;;;;;;4.05;1.95;;;1.10;99.90;;;;;;6309313;22;20054;-43
2024/01/21 05:19:16;;;;;;;4.07;1.80;;;1.10;99.90;;;;;;6309259;22;20011;-42
2024/01/21 05:21:42;;;;;;;4.30;1.75;;;1.10;99.90;;;;;;6281995;22;20419;-42
2024/01/21 05:24:08;;;;;;;2.70;1.23;;;1.00;99.90;;;;;;6309415;22;20117;-43
2024/01/21 05:26:41;;;;;;;2.97;1.63;;;1.00;99.90;;;;;;6256308;22;20148;-43
2024/01/21 05:29:06;;;;;;;3.50;1.73;;;1.10;99.90;;;;;;6282088;22;20474;-42
2024/01/21 05:31:33;;;;;;;2.63;1.48;;;1.00;99.90;;;;;;6282229;22;20022;-41
2024/01/21 05:33:58;;;;;;;3.17;1.67;;;0.90;99.90;;;;;;6309338;22;20021;-42
2024/01/21 05:36:24;;;;;;;3.50;1.60;;;0.80;99.90;;;;;;6309579;22;20019;-40
2024/01/21 05:38:50;;;;;;;1.85;1.17;;;0.80;99.90;;;;;;6281424;22;20015;-43
2024/01/21 05:41:19;;;;;;;5.85;1.67;;;0.80;99.90;;;;;;6282959;22;20076;-42
2024/01/21 05:43:44;;;;;;;6.40;2.08;;;0.90;99.90;;;;;;6309513;22;20319;-43
2024/01/21 05:46:10;;;;;;;3.38;1.67;;;0.90;99.90;;;;;;6309137;22;20019;-42
2024/01/21 05:48:36;;;;;;;2.85;1.58;;;0.90;99.90;;;;;;6281916;22;20015;-42
2024/01/21 05:51:02;;;;;;;3.88;1.60;;;0.90;99.90;;;;;;6308987;22;20043;-40
2024/01/21 05:53:27;;;;;;;8.60;2.08;;;0.90;99.90;;;;;;6309067;22;20073;-42
2024/01/21 05:55:53;;;;;;;4.65;1.90;;;0.90;99.90;;;;;;6281778;22;20015;-43
2024/01/21 05:58:19;;;;;;;3.70;2.10;;;1.00;99.90;;;;;;6309946;22;20015;-43
2024/01/21 06:00:44;;;;;;;3.47;1.67;;;1.00;99.90;;;;;;6282407;22;20323;-42
2024/01/21 06:03:10;;;;;;;3.93;1.80;;;1.00;99.90;;;;;;6282496;22;20041;-43
2024/01/21 06:05:36;;;;;;;2.53;1.50;;;1.00;99.90;;;;;;6281782;22;20023;-41
2024/01/21 06:08:01;;;;;;;4.25;2.15;;;1.00;99.90;;;;;;6308525;22;20348;-42
2024/01/21 06:10:27;;;;;;;2.78;1.63;;;0.90;99.90;;;;;;6257304;22;20023;-42
2024/01/21 06:12:53;;;;;;;3.83;2.30;;;0.90;99.90;;;;;;6281585;22;20491;-42
2024/01/21 06:15:19;;;;;;;5.93;2.08;;;0.90;99.90;;;;;;6309580;22;20023;-43
2024/01/21 06:17:44;;;;;;;4.20;1.85;;;0.80;99.90;;;;;;6281524;22;20055;-42
2024/01/21 06:20:11;;;;;;;3.17;1.88;;;0.90;99.90;;;;;;6281520;22;20015;-42
2024/01/21 06:22:37;;;;;;;3.63;1.80;;;0.90;99.90;;;;;;6309385;22;20019;-42
2024/01/21 06:25:03;;;;;;;5.20;1.80;;;0.80;99.90;;;;;;6281522;22;20046;-43
2024/01/21 06:27:29;;;;;;;3.28;1.90;;;0.80;99.90;;;;;;6308721;22;20339;-41
2024/01/21 06:29:55;;;;;;;5.13;2.15;;;0.80;99.90;;;;;;6282323;22;20427;-43
2024/01/21 06:32:21;;;;;;;5.30;2.75;;;0.80;99.90;;;;;;6256717;22;20023;-41
2024/01/21 06:34:46;;;;;;;4.30;1.90;;;0.70;99.90;;;;;;6281833;22;20101;-43
2024/01/21 06:37:12;;;;;;;5.83;2.70;;;0.70;99.90;;;;;;6280932;22;20011;-41
2024/01/21 06:39:38;;;;;;;5.13;2.37;;;0.70;99.90;;;;;;6309235;22;20026;-43
2024/01/21 06:42:04;;;;;;;3.87;2.07;;;0.60;99.90;;;;;;6308163;22;20023;-42
2024/01/21 06:44:29;;;;;;;5.47;2.57;;;0.70;99.90;;;;;;6308592;22;20050;-43
2024/01/21 06:46:55;;;;;;;5.93;2.77;;;0.70;99.90;;;;;;6281586;22;20104;-41
2024/01/21 06:49:21;;;;;;;4.30;2.20;;;0.60;99.90;;;;;;6255794;22;20461;-43
2024/01/21 06:51:47;;;;;;;3.78;1.95;;;0.70;99.90;;;;;;6255703;22;20022;-42
2024/01/21 06:54:13;;;;;;;4.33;2.37;;;0.60;99.90;;;;;;6307753;22;20102;-42
2024/01/21 06:56:39;;;;;;;4.43;2.70;;;0.60;99.90;;;;;;6308443;22;20031;-43
2024/01/21 06:59:05;;;;;;;3.97;2.30;;;0.70;99.90;;;;;;6280620;22;20015;-41
2024/01/21 07:01:30;;;;;;;4.40;1.90;;;0.80;99.90;;;;;;6281270;22;20046;-42
2024/01/21 07:03:56;;;;;;;4.50;2.33;;;0.70;99.90;;;;;;6309098;22;20050;-42
2024/01/21 07:06:22;;;;;;;6.53;2.57;;;0.60;99.90;;;;;;6255785;22;20019;-41
2024/01/21 07:08:47;;;;;;;5.23;2.57;;;0.80;99.90;;;;;;6282084;22;20426;-43
2024/01/21 07:11:13;;;;;;;3.20;1.80;;;0.50;99.90;;;;;;6308326;22;20026;-42
2024/01/21 07:13:39;;;;;;;4.60;2.53;;;0.60;99.90;;;;;;6308222;22;20015;-42
2024/01/21 07:16:05;;;;;;;5.40;2.93;;;0.60;99.90;;;;;;6308248;22;20017;-42
2024/01/21 07:18:30;;;;;;;5.37;2.70;;;0.70;99.90;;;;;;6280887;22;20046;-41
2024/01/21 07:20:56;;;;;;;4.67;2.20;;;0.60;99.90;;;;;;6308905;22;20015;-42
2024/01/21 07:23:22;;;;;;;5.83;2.57;;;0.70;99.90;;;;;;6308215;22;20051;-42
2024/01/21 07:25:48;;;;;;;5.80;3.00;;;0.70;99.90;;;;;;6281158;22;20056;-41
2024/01/21 07:28:13;;;;;;;10.67;2.60;;;0.60;99.90;;;;;;6280804;22;20022;-42
2024/01/21 07:30:39;;;;;;;4.40;2.33;;;0.70;99.90;;;;;;6307791;22;20094;-43
2024/01/21 07:33:05;;;;;;;4.53;2.78;;;0.70;99.90;;;;;;6308194;22;20022;-43
2024/01/21 07:35:31;;;;;;;6.13;3.50;;;0.70;99.90;;;;;;6280775;22;20385;-42
2024/01/21 07:37:56;;;;;;;4.10;2.77;;;0.70;99.90;;;;;;6280709;22;20024;-42
2024/01/21 07:40:22;;;;;;;5.37;3.03;;;0.80;99.90;;;;;;6308109;22;20473;-42
2024/01/21 07:42:48;;;;;;;3.40;2.25;;;0.70;99.90;;;;;;6308748;22;20043;-43
2024/01/21 07:45:14;;;;;;;5.30;2.67;;;0.70;99.90;;;;;;6308142;22;20102;-40
2024/01/21 07:47:40;;;;;;;4.20;2.50;;;0.80;99.90;;;;;;6281829;22;20015;-43
2024/01/21 07:50:07;;;;;;;4.93;2.83;;;0.80;99.90;;;;;;6281863;22;20026;-42
2024/01/21 07:52:33;;;;;;;6.55;2.85;;;0.80;99.90;;;;;;6283063;22;20019;-43
2024/01/21 07:54:58;;;;;;;6.30;3.57;;;0.90;99.90;;;;;;6310735;22;20050;-43
2024/01/21 07:57:24;;;;;;;6.00;3.13;;;0.80;99.90;;;;;;6282815;22;20030;-41
2024/01/21 07:59:50;;;;;;;7.07;3.47;;;1.00;99.90;;;;;;6310141;22;20011;-41
2024/01/21 08:02:16;;;;;;;5.53;3.30;;;0.80;99.90;;;;;;6309743;22;20128;-43
2024/01/21 08:04:42;;;;;;;8.07;3.03;;;0.80;99.90;;;;;;6233094;22;20023;-42
2024/01/21 08:07:08;;;;;;;6.20;2.90;;;1.00;99.90;;;;;;6282935;22;20029;-42
2024/01/21 08:09:34;;;;;;;4.43;2.85;;;0.70;99.90;;;;;;6282828;22;20019;-42
2024/01/21 08:12:00;;;;;;;7.57;3.43;;;0.80;99.90;;;;;;6310000;22;20513;-43
2024/01/21 08:14:26;;;;;;;4.57;2.97;;;0.80;99.90;;;;;;6310037;22;20011;-42
2024/01/21 08:16:53;;;;;;;8.17;3.53;;;0.90;99.90;;;;;;6309993;22;20466;-40
2024/01/21 08:19:20;;;;;;;4.93;2.50;;;0.90;99.90;;;;;;6258040;22;20019;-42
2024/01/21 08:21:49;;;;;;;6.53;3.75;;;1.00;99.90;;;;;;6310388;22;20066;-41
2024/01/21 08:24:15;;;;;;;6.43;3.50;;;1.00;99.90;;;;;;6283506;22;20019;-43
2024/01/21 08:26:40;;;;;;;9.45;3.28;;;1.10;99.90;;;;;;6257456;22;20023;-42
2024/01/21 08:29:06;;;;;;;6.07;2.83;;;1.20;99.90;;;;;;6310583;22;20419;-44
2024/01/21 08:31:32;;;;;;;6.03;2.90;;;1.20;99.90;;;;;;6309398;22;20094;-42
2024/01/21 08:33:58;;;;;;;6.63;3.35;;;1.30;99.90;;;;;;6282737;22;20030;-40
2024/01/21 08:36:23;;;;;;;6.82;3.92;;;1.30;99.90;;;;;;6310516;22;20120;-42
2024/01/21 08:38:49;;;;;;;6.32;3.72;;;1.30;99.90;;;;;;6310079;22;20515;-43
2024/01/21 08:41:15;;;;;;;5.25;3.10;;;1.30;99.90;;;;;;6310026;22;20019;-41
2024/01/21 08:43:40;;;;;;;5.47;3.10;;;1.30;99.90;;;;;;6309654;22;20354;-41
2024/01/21 08:46:09;;;;;;;5.75;3.33;;;1.30;99.90;;;;;;6256978;22;20022;-42
2024/01/21 08:48:35;;;;;;;4.63;2.83;;;1.30;99.90;;;;;;6282307;22;20015;-42
2024/01/21 08:51:01;;;;;;;6.13;3.65;;;1.20;99.90;;;;;;6309441;22;20015;-39
2024/01/21 08:53:26;;;;;;;7.35;4.40;;;1.00;99.90;;;;;;6309764;22;20069;-41
2024/01/21 08:55:52;;;;;;;4.75;3.03;;;0.90;99.90;;;;;;6310286;22;20069;-42
2024/01/21 08:58:18;;;;;;;8.60;3.92;;;0.90;99.90;;;;;;6283112;22;20015;-41
2024/01/21 09:00:43;;;;;;;6.10;3.30;;;0.90;99.90;;;;;;6281702;22;20073;-40
2024/01/21 09:03:10;;;;;;;8.65;4.38;;;0.90;99.90;;;;;;6309787;22;20019;-42
2024/01/21 09:05:36;;;;;;;6.68;3.80;;;0.90;99.90;;;;;;6309608;22;20323;-41
2024/01/21 09:08:02;;;;;;;8.50;4.65;;;0.80;99.90;;;;;;6282928;22;20015;-42
2024/01/21 09:10:29;;;;;;;6.45;4.03;;;0.80;99.90;;;;;;6282439;22;20015;-41
2024/01/21 09:12:54;;;;;;;7.90;4.57;;;0.80;99.90;;;;;;6281641;22;20015;-41
2024/01/21 09:15:21;;;;;;;6.97;4.43;;;1.00;99.90;;;;;;6309668;22;20087;-42
2024/01/21 09:17:48;;;;;;;7.78;4.15;;;1.20;99.90;;;;;;6282334;22;20019;-40
2024/01/21 09:20:14;;;;;;;6.07;3.60;;;1.30;99.90;;;;;;6308996;22;20450;-42
2024/01/21 09:22:40;;;;;;;6.50;3.72;;;1.30;99.90;;;;;;6282033;22;20050;-42
2024/01/21 09:25:05;;;;;;;6.15;3.70;;;1.50;99.90;;;;;;6309648;22;20016;-42
2024/01/21 09:27:31;;;;;;;5.78;3.72;;;1.50;99.90;;;;;;6256635;22;20331;-41
2024/01/21 09:29:57;;;;;;;6.13;3.33;;;1.60;99.90;;;;;;6309949;22;20430;-39
2024/01/21 09:32:23;;;;;;;6.38;3.67;;;1.60;99.90;;;;;;6309234;22;20015;-43
2024/01/21 09:34:49;;;;;;;8.27;4.30;;;1.60;99.90;;;;;;6309239;22;20033;-41
2024/01/21 09:37:15;;;;;;;9.13;3.83;;;1.60;99.90;;;;;;6231090;22;20434;-40
2024/01/21 09:39:41;;;;;;;7.63;3.95;;;1.70;99.90;;;;;;6309171;22;20438;-41
2024/01/21 09:42:08;;;;;;;7.55;3.95;;;1.80;99.90;;;;;;6231101;22;20019;-41
2024/01/21 09:44:33;;;;;;;6.55;3.60;;;1.80;99.90;;;;;;6282810;22;20015;-41
2024/01/21 09:47:01;;;;;;;6.78;4.60;;;1.80;99.90;;;;;;6257405;22;20015;-41
2024/01/21 09:49:27;;;;;;;8.40;4.22;;;1.90;99.90;;;;;;6309443;22;20085;-42
2024/01/21 09:51:54;;;;;;;7.18;4.18;;;2.00;99.90;;;;;;6309804;22;20064;-42
2024/01/21 09:54:21;;;;;;;6.28;4.32;;;2.00;99.90;;;;;;6308629;22;20049;-39
2024/01/21 09:56:47;;;;;;;7.47;3.90;;;2.00;99.90;;;;;;6309062;22;20023;-41
2024/01/21 09:59:13;;;;;;;7.47;4.15;;;2.00;99.90;;;;;;6309567;22;20095;-40
2024/01/21 10:01:40;;;;;;;5.90;4.03;;;2.00;99.90;;;;;;6309750;22;20050;-41
2024/01/21 10:04:15;;;;;;;8.20;4.40;;;2.20;99.90;;;;;;6308845;22;20072;-39
2024/01/21 10:06:41;;;;;;;6.82;4.18;;;2.10;99.90;;;;;;6282137;22;20019;-40
2024/01/21 10:09:18;;;;;;;8.02;4.40;;;2.10;99.90;;;;;;6309173;22;20542;-41
2024/01/21 10:12:06;;;;;;;7.68;4.60;;;2.20;99.90;;;;;;6308582;22;20012;-40
2024/01/21 10:14:32;;;;;;;7.35;4.55;;;2.30;99.90;;;;;;6282364;22;20110;-41
2024/01/21 10:16:59;;;;;;;6.85;4.03;;;2.40;99.90;;;;;;6309109;22;20015;-40
2024/01/21 10:19:27;;;;;;;7.50;4.13;;;2.40;99.90;;;;;;6281359;22;20019;-40
2024/01/21 10:22:23;;;;;;;7.50;4.88;;;2.40;99.90;;;;;;6308748;22;20026;-39
2024/01/21 10:24:49;;;;;;;8.38;4.68;;;2.50;99.90;;;;;;6309573;22;20053;-42
2024/01/21 10:27:15;;;;;;;7.22;4.25;;;2.60;99.90;;;;;;6255839;22;20030;-40
2024/01/21 10:29:47;;;;;;;8.75;4.80;;;2.80;99.90;;;;;;6282475;22;20015;-39
2024/01/21 10:32:15;;;;;;;8.00;4.78;;;2.60;99.90;;;;;;6281476;22;20023;-39
2024/01/21 10:34:49;;;;;;;7.95;4.53;;;2.60;99.90;;;;;;6308688;22;20019;-38
2024/01/21 10:37:15;;;;;;;9.98;4.68;;;2.50;99.90;;;;;;6281298;22;20023;-40
2024/01/21 10:39:44;;;;;;;10.23;4.82;;;2.60;99.90;;;;;;6281264;22;20016;-41
2024/01/21 10:42:12;;;;;;;8.82;5.35;;;2.60;99.90;;;;;;6308450;22;20026;-39
2024/01/21 10:44:38;;;;;;;9.23;4.43;;;2.60;99.90;;;;;;6282223;22;20204;-36
2024/01/21 10:47:07;;;;;;;8.85;5.28;;;2.60;99.90;;;;;;6281195;22;20446;-39
2024/01/21 10:49:33;;;;;;;8.07;4.38;;;2.60;99.90;;;;;;6281006;22;20026;-41
2024/01/21 10:52:00;;;;;;;7.80;4.63;;;2.70;99.90;;;;;;6308563;22;20012;-41
2024/01/21 10:54:27;;;;;;;9.85;4.72;;;2.70;99.90;;;;;;6280948;22;20015;-39
2024/01/21 10:56:53;;;;;;;9.00;4.80;;;2.80;99.90;;;;;;6308385;22;20019;-41
2024/01/21 10:59:19;;;;;;;9.02;5.13;;;2.80;99.90;;;;;;6308545;22;20015;-39
2024/01/21 11:01:46;;;;;;;13.07;5.20;;;2.80;99.90;;;;;;6308368;22;20022;-38
2024/01/21 11:04:13;;;;;;;10.68;6.07;;;2.80;99.90;;;;;;6308690;22;20385;-39
2024/01/21 11:06:46;;;;;;;8.82;5.20;;;2.90;99.90;;;;;;6308730;22;20330;-40
2024/01/21 11:09:16;;;;;;;7.60;4.85;;;2.80;99.90;;;;;;6309194;22;20012;-37
2024/01/21 11:11:44;;;;;;;7.50;5.47;;;2.90;99.90;;;;;;6308195;22;20094;-40
2024/01/21 11:14:35;;;;;;;10.63;5.35;;;2.90;99.90;;;;;;6308270;22;20026;-37
2024/01/21 11:17:10;;;;;;;7.82;4.20;;;3.00;99.90;;;;;;6308133;22;20019;-41
2024/01/21 11:19:53;;;;;;;8.70;5.47;;;3.10;99.90;;;;;;6308219;22;20023;-39
2024/01/21 11:22:21;;;;;;;12.20;4.95;;;3.10;99.90;;;;;;6308715;22;20015;-37
2024/01/21 11:24:47;;;;;;;8.98;4.75;;;3.10;99.90;;;;;;6255329;22;20042;-38
2024/01/21 11:27:24;;;;;;;10.75;5.32;;;3.10;99.90;;;;;;6308187;22;20038;-40
2024/01/21 11:29:56;;;;;;;8.88;5.10;;;3.10;99.90;;;;;;6255681;22;20016;-41
2024/01/21 11:32:28;;;;;;;11.93;5.32;;;3.20;99.90;;;;;;6280870;22;20019;-42
2024/01/21 11:34:55;;;;;;;10.60;5.18;;;3.20;99.90;;;;;;6281652;22;20019;-41
2024/01/21 11:37:21;;;;;;;9.50;5.05;;;3.20;99.90;;;;;;6280624;22;20017;-39
2024/01/21 11:39:47;;;;;;;10.68;6.03;;;3.20;99.90;;;;;;6255915;22;20027;-41
2024/01/21 11:42:14;;;;;;;8.38;3.83;;;3.10;99.90;;;;;;6280338;22;20015;-40
2024/01/21 11:44:39;;;;;;;9.45;4.60;;;3.10;99.90;;;;;;6308072;22;20134;-37
2024/01/21 11:47:06;;;;;;;10.13;4.75;;;3.10;99.90;;;;;;6280734;22;20403;-41
2024/01/21 11:49:36;;;;;;;7.85;4.90;;;3.00;99.90;;;;;;6307959;22;20098;-41
2024/01/21 11:52:07;;;;;;;10.40;5.55;;;3.00;99.90;;;;;;6308114;22;20023;-40
2024/01/21 11:54:36;;;;;;;9.63;5.20;;;3.00;99.90;;;;;;6308683;22;20015;-39
2024/01/21 11:57:02;;;;;;;10.82;5.38;;;3.00;99.90;;;;;;6255192;22;20022;-40
2024/01/21 11:59:30;;;;;;;9.75;5.53;;;3.00;99.90;;;;;;6307522;22;20469;-37
2024/01/21 12:01:57;;;;;;;8.85;5.13;;;3.00;99.90;;;;;;6308019;22;20443;-41
2024/01/21 12:04:24;;;;;;;10.68;6.05;;;3.10;99.90;;;;;;6308634;22;20019;-40
2024/01/21 12:06:52;;;;;;;9.32;5.93;;;3.10;99.90;;;;;;6280218;22;20015;-39
2024/01/21 12:09:19;;;;;;;9.43;5.68;;;3.10;99.90;;;;;;6308006;22;20501;-37
2024/01/21 12:11:47;;;;;;;9.82;5.30;;;3.10;99.90;;;;;;6308008;22;20019;-40
2024/01/21 12:14:17;;;;;;;10.63;6.15;;;3.00;99.90;;;;;;6280661;22;20090;-38
2024/01/21 12:16:50;;;;;;;10.30;5.78;;;3.10;99.90;;;;;;6280132;22;20038;-40
2024/01/21 12:19:16;;;;;;;11.93;5.57;;;3.20;99.90;;;;;;6280759;22;20022;-42
2024/01/21 12:21:44;;;;;;;9.35;5.20;;;3.20;99.90;;;;;;6307930;22;20024;-37
2024/01/21 12:24:10;;;;;;;12.07;6.00;;;3.10;99.90;;;;;;6308898;22;20015;-40
2024/01/21 12:26:35;;;;;;;12.75;5.40;;;3.10;99.90;;;;;;6307913;22;20015;-39
2024/01/21 12:29:05;;;;;;;13.70;5.93;;;3.10;99.90;;;;;;6255802;22;20069;-42
2024/01/21 12:31:31;;;;;;;12.18;5.88;;;3.10;99.90;;;;;;6307839;22;20016;-42
2024/01/21 12:34:02;;;;;;;14.98;5.95;;;3.20;99.90;;;;;;6280546;22;20023;-37
2024/01/21 12:36:36;;;;;;;11.18;5.88;;;3.20;99.90;;;;;;6309181;22;20023;-42
2024/01/21 12:39:04;;;;;;;11.80;6.80;;;3.20;99.90;;;;;;6282379;22;20105;-39
2024/01/21 12:41:30;;;;;;;10.25;6.03;;;3.20;99.90;;;;;;6282831;22;20088;-39
2024/01/21 12:43:56;;;;;;;12.52;4.82;;;3.30;99.90;;;;;;6309781;22;20051;-37
2024/01/21 12:46:22;;;;;;;9.73;5.22;;;3.30;99.90;;;;;;6309679;22;20027;-40
2024/01/21 12:48:49;;;;;;;14.25;7.35;;;3.30;99.90;;;;;;6309595;22;20015;-39
2024/01/21 12:51:17;;;;;;;10.18;5.63;;;3.40;99.90;;;;;;6282272;22;20446;-42